»·PEaware :: N333ZS KSNA-KBUR

N333ZS :: KSNA-KBUR

FLIGHT INFORMATION

Flight Status: Arrived
Operator: Privately registered:
United States
More flights under this callsign
Pilot: Judd H. (29974)
Aircraft: CESSNA 182 SKYLANE
(C182)
More flights by this aircraft type
Origin: KSNA John Wayne-Orange Co
United States
Destination: KBUR Bob Hope-Burbank
United States
More flights between these airports :: More routes between these airports
Route: POM
File this flight plan on PilotEdge
Remarks:
Altitude:
(Current/Filed)
3,500ft
Speed:
(Current/Filed)
120kts
Departed: 14-Aug-20 03:08 PM
Arrived: 14-Aug-20 03:42 PM
Distance/Time
Traveled:
40nm/0:33
Distance/Time
To Go:
Arrived

Flight Plot

Page will automatically refresh every two minutes.

Flight plan parsing failed; only flown route is shown


Map Options




Map Legend


Flown Route
Filed Route
Departure Airport
Arrival Airport
Navaid (VOR, NDB)
Fix

Horizontal Profiles

Position Reports

Time Latitude Longitude Heading Altitude Ground
Speed
14-Aug-20 14:45 33.670469 -117.867557 39 59ft 0kts
14-Aug-20 14:46 33.670469 -117.867557 39 59ft 0kts
14-Aug-20 14:47 33.670469 -117.867557 39 59ft 0kts
14-Aug-20 14:48 33.670469 -117.867557 39 59ft 0kts
14-Aug-20 14:49 33.670469 -117.867557 39 59ft 0kts
14-Aug-20 14:50 33.670469 -117.867557 39 59ft 0kts
14-Aug-20 14:51 33.670469 -117.867557 39 59ft 0kts
14-Aug-20 14:52 33.670469 -117.867557 39 59ft 0kts
14-Aug-20 14:53 33.670469 -117.867557 39 59ft 0kts
14-Aug-20 14:54 33.670469 -117.867557 39 59ft 0kts
14-Aug-20 14:55 33.670584 -117.867445 39 59ft 0kts
14-Aug-20 14:56 33.670585 -117.867444 39 59ft 0kts
14-Aug-20 14:57 33.670586 -117.867443 39 59ft 0kts
14-Aug-20 14:58 33.670587 -117.867442 39 59ft 0kts
14-Aug-20 14:59 33.670588 -117.867441 39 59ft 0kts
14-Aug-20 15:00 33.670588 -117.867440 39 59ft 0kts
14-Aug-20 15:01 33.671180 -117.867396 345 59ft 9kts
14-Aug-20 15:02 33.673607 -117.867352 29 59ft 11kts
14-Aug-20 15:03 33.678478 -117.864246 28 59ft 19kts
14-Aug-20 15:04 33.679654 -117.863751 312 59ft 0kts
14-Aug-20 15:05 33.679700 -117.863815 309 59ft 0kts
14-Aug-20 15:06 33.679372 -117.864584 207 59ft 24kts
14-Aug-20 15:07 33.662784 -117.880806 244 516ft 112kts
14-Aug-20 15:08 33.646741 -117.917505 242 825ft 130kts
14-Aug-20 15:09 33.629646 -117.955723 245 1115ft 129kts
14-Aug-20 15:10 33.606006 -117.978189 146 1612ft 120kts
14-Aug-20 15:11 33.607028 -117.945285 41 2065ft 121kts
14-Aug-20 15:12 33.632739 -117.919320 14 2338ft 123kts
14-Aug-20 15:13 33.663182 -117.909680 15 2894ft 109kts
14-Aug-20 15:14 33.691703 -117.897084 16 3348ft 110kts
14-Aug-20 15:15 33.722086 -117.884915 10 3538ft 124kts
14-Aug-20 15:16 33.754022 -117.865779 28 3538ft 132kts
14-Aug-20 15:17 33.785839 -117.843629 20 3538ft 132kts
14-Aug-20 15:18 33.821474 -117.833973 7 3541ft 131kts
14-Aug-20 15:19 33.857474 -117.825693 9 3540ft 132kts
14-Aug-20 15:20 33.893826 -117.818022 358 3539ft 131kts
14-Aug-20 15:21 33.930118 -117.813944 5 3540ft 132kts
14-Aug-20 15:22 33.966497 -117.806753 6 3540ft 132kts
14-Aug-20 15:23 34.003087 -117.803663 357 3540ft 132kts
14-Aug-20 15:24 34.039523 -117.807053 351 3541ft 131kts
14-Aug-20 15:25 34.074525 -117.816219 336 3541ft 128kts
14-Aug-20 15:26 34.092480 -117.850007 287 3543ft 125kts
14-Aug-20 15:27 34.100717 -117.890922 283 3547ft 125kts
14-Aug-20 15:28 34.109468 -117.931360 285 3550ft 125kts
14-Aug-20 15:29 34.118833 -117.972198 285 3549ft 126kts
14-Aug-20 15:30 34.127170 -118.013446 283 3546ft 126kts
14-Aug-20 15:31 34.135323 -118.054932 283 3550ft 126kts
14-Aug-20 15:32 34.143468 -118.096305 283 3562ft 127kts
14-Aug-20 15:33 34.151517 -118.137926 283 3570ft 127kts
14-Aug-20 15:34 34.160022 -118.181234 283 3338ft 137kts
14-Aug-20 15:35 34.168661 -118.226287 283 3068ft 137kts
14-Aug-20 15:36 34.177633 -118.272563 283 2569ft 148kts
14-Aug-20 15:37 34.179824 -118.320296 264 2094ft 131kts
14-Aug-20 15:38 34.180970 -118.364139 275 1463ft 128kts
14-Aug-20 15:39 34.189172 -118.399362 346 1505ft 93kts
14-Aug-20 15:40 34.197981 -118.375234 90 918ft 82kts
14-Aug-20 15:41 34.198454 -118.360250 3 724ft 10kts
14-Aug-20 15:42 34.200468 -118.359340 344 724ft 18kts
14-Aug-20 15:43 34.201019 -118.358990 84 724ft 0kts

Navigation Log

Ident Type
Flight plan parsing failed, navigation log unavailable